Terminal Aerodrome Forecast
Issued by NWS

Home | Current Version | Previous Version | Graphics & Text | Print | Product List | Glossary On
Versions: 1 2 3 4 5 6 7 8 9 10 11 12 13 14 15 16 17 18 19 20 21 22 23 24 25 26 27 28 29 30 31 32 33 34
000
FTUS43 KLOT 232300 RRA
TAFMDW
TAF
KMDW 232342Z 2400/2424 20008KT P6SM VCSH SCT035 OVC060
     FM240600 22005KT P6SM BKN025 OVC040
     FM240900 24004KT 4SM BR OVC012
     FM241400 23005KT P6SM SCT010 BKN020
     FM241800 21008KT P6SM SCT025 SCT250=

USA.gov is the U.S. government's official web portal to all federal, state and local government web resources and services.